createdAt,value
2016-07-03T00:00:13.762Z,14.7
2016-07-03T00:01:13.762Z,14.74
2016-07-03T00:02:13.769Z,14.7
2016-07-03T00:03:13.763Z,14.7
2016-07-03T00:04:13.761Z,14.66
2016-07-03T00:05:13.764Z,14.66
2016-07-03T00:06:13.765Z,14.71
2016-07-03T00:07:13.780Z,14.73
2016-07-03T00:08:13.763Z,14.63
2016-07-03T00:09:13.771Z,14.67
2016-07-03T00:10:13.765Z,14.66
2016-07-03T00:11:13.150Z,14.63
2016-07-03T00:12:13.773Z,14.55
2016-07-03T00:13:13.769Z,14.62
2016-07-03T00:14:13.777Z,14.59
2016-07-03T00:15:13.773Z,14.55
2016-07-03T00:16:13.154Z,14.62
2016-07-03T00:17:13.771Z,14.62
2016-07-03T00:18:13.773Z,14.55
2016-07-03T00:19:13.794Z,14.56
2016-07-03T00:20:13.786Z,14.59
2016-07-03T00:21:13.782Z,14.67
2016-07-03T00:22:13.778Z,14.67
2016-07-03T00:23:13.784Z,14.68
2016-07-03T00:24:13.787Z,14.67
2016-07-03T00:25:13.777Z,14.68
2016-07-03T00:26:13.773Z,14.68
2016-07-03T00:27:13.780Z,14.73
2016-07-03T00:28:13.774Z,14.77
2016-07-03T00:29:13.773Z,14.71
2016-07-03T00:30:13.785Z,14.77
2016-07-03T00:31:13.787Z,14.77
2016-07-03T00:32:13.789Z,14.74
2016-07-03T00:33:13.787Z,14.77
2016-07-03T00:34:13.791Z,14.7
2016-07-03T00:35:13.794Z,14.68
2016-07-03T00:36:13.789Z,14.79
2016-07-03T00:37:13.794Z,14.74
2016-07-03T00:38:13.794Z,14.82
2016-07-03T00:39:13.795Z,14.78
2016-07-03T00:40:13.794Z,14.82
2016-07-03T00:41:13.793Z,14.85
2016-07-03T00:42:13.799Z,14.81
2016-07-03T00:43:13.797Z,14.81
2016-07-03T00:44:13.798Z,14.85
2016-07-03T00:45:13.803Z,14.81
2016-07-03T00:46:13.806Z,14.81
2016-07-03T00:47:13.797Z,14.71
2016-07-03T00:48:13.807Z,14.74
2016-07-03T00:49:13.812Z,14.7
2016-07-03T00:50:13.807Z,14.63
2016-07-03T00:51:13.811Z,14.67
2016-07-03T00:52:13.811Z,14.7
2016-07-03T00:53:13.807Z,14.66
2016-07-03T00:54:13.807Z,14.58
2016-07-03T00:55:13.816Z,14.62
2016-07-03T00:56:13.811Z,14.59
2016-07-03T00:57:13.820Z,14.53
2016-07-03T00:58:13.815Z,14.56
2016-07-03T00:59:13.812Z,14.59
2016-07-03T01:00:13.811Z,14.53
2016-07-03T01:01:13.812Z,14.56
2016-07-03T01:02:13.811Z,14.49
2016-07-03T01:03:13.816Z,14.51
2016-07-03T01:04:13.809Z,14.49
2016-07-03T01:05:13.824Z,14.51
2016-07-03T01:06:13.823Z,14.49
2016-07-03T01:07:13.824Z,14.49
2016-07-03T01:08:13.827Z,14.52
2016-07-03T01:09:13.828Z,14.51
2016-07-03T01:10:13.828Z,14.48
2016-07-03T01:11:13.821Z,14.56
2016-07-03T01:12:13.813Z,14.44
2016-07-03T01:13:13.190Z,14.51
2016-07-03T01:14:13.813Z,14.59
2016-07-03T01:15:13.825Z,14.56
2016-07-03T01:16:13.813Z,14.59
2016-07-03T01:17:13.825Z,14.55
2016-07-03T01:18:13.879Z,14.52
2016-07-03T01:19:13.836Z,14.59
2016-07-03T01:20:13.831Z,14.51
2016-07-03T01:21:13.836Z,14.55
2016-07-03T01:22:13.837Z,14.55
2016-07-03T01:23:13.828Z,14.56
2016-07-03T01:24:13.836Z,14.59
2016-07-03T01:25:13.838Z,14.53
2016-07-03T01:26:13.822Z,14.55
2016-07-03T01:27:13.840Z,14.52
2016-07-03T01:28:13.837Z,14.55
2016-07-03T01:29:13.845Z,14.61
2016-07-03T01:30:13.834Z,14.49
2016-07-03T01:31:13.834Z,14.56
2016-07-03T01:32:13.834Z,14.55
2016-07-03T01:33:13.834Z,14.59
2016-07-03T01:34:13.834Z,14.51
2016-07-03T01:35:13.834Z,14.51
2016-07-03T01:36:13.210Z,14.53
2016-07-03T01:37:13.833Z,14.52
2016-07-03T01:38:13.834Z,14.53
2016-07-03T01:39:13.840Z,14.53
2016-07-03T01:40:13.844Z,14.48
2016-07-03T01:41:13.224Z,14.44
2016-07-03T01:42:13.844Z,14.48
2016-07-03T01:43:13.896Z,14.34
2016-07-03T01:44:13.848Z,14.4
2016-07-03T01:45:13.851Z,14.44
2016-07-03T01:46:13.856Z,14.41
2016-07-03T01:47:13.847Z,14.44
2016-07-03T01:48:13.857Z,14.36
2016-07-03T01:49:13.847Z,14.41
2016-07-03T01:50:13.848Z,14.36
2016-07-03T01:51:13.851Z,14.38
2016-07-03T01:52:13.850Z,14.43
2016-07-03T01:53:13.845Z,14.44
2016-07-03T01:54:13.856Z,14.38
2016-07-03T01:55:13.842Z,14.43
2016-07-03T01:56:13.857Z,14.41
2016-07-03T01:57:13.856Z,14.37
2016-07-03T01:58:13.855Z,14.36
2016-07-03T01:59:13.856Z,14.4
2016-07-03T02:00:13.864Z,14.4
2016-07-03T02:01:13.863Z,14.31
2016-07-03T02:02:13.868Z,14.37
2016-07-03T02:03:13.868Z,14.33
2016-07-03T02:04:13.883Z,14.37
2016-07-03T02:05:13.864Z,14.36
2016-07-03T02:06:13.865Z,14.36
2016-07-03T02:07:13.861Z,14.37
2016-07-03T02:08:13.873Z,14.36
2016-07-03T02:09:13.869Z,14.3
2016-07-03T02:10:13.865Z,14.37
2016-07-03T02:11:13.865Z,14.31
2016-07-03T02:12:13.866Z,14.38
2016-07-03T02:13:13.876Z,14.37
2016-07-03T02:14:13.873Z,14.38
2016-07-03T02:15:13.863Z,14.36
2016-07-03T02:16:13.867Z,14.37
2016-07-03T02:17:13.869Z,14.31
2016-07-03T02:18:13.868Z,14.37
2016-07-03T02:19:13.877Z,14.36
2016-07-03T02:20:13.873Z,14.36
2016-07-03T02:21:13.873Z,14.37
2016-07-03T02:22:13.874Z,14.31
2016-07-03T02:23:13.877Z,14.22
2016-07-03T02:24:13.882Z,14.37
2016-07-03T02:25:13.886Z,14.22
2016-07-03T02:26:13.878Z,14.31
2016-07-03T02:27:13.877Z,14.34
2016-07-03T02:28:13.880Z,14.2
2016-07-03T02:29:13.881Z,14.34
2016-07-03T02:30:13.886Z,14.26
2016-07-03T02:31:13.890Z,14.3
2016-07-03T02:32:13.882Z,14.25
2016-07-03T02:33:13.882Z,14.26
2016-07-03T02:34:13.883Z,14.36
2016-07-03T02:35:14.034Z,14.3
2016-07-03T02:36:13.891Z,14.2
2016-07-03T02:37:13.258Z,14.3
2016-07-03T02:38:13.884Z,14.26
2016-07-03T02:39:13.879Z,14.28
2016-07-03T02:40:13.886Z,14.31
2016-07-03T02:41:13.262Z,14.23
2016-07-03T02:42:13.898Z,14.28
2016-07-03T02:43:13.898Z,14.3
2016-07-03T02:44:13.892Z,14.22
2016-07-03T02:45:13.898Z,14.3
2016-07-03T02:46:13.898Z,14.25
2016-07-03T02:47:13.903Z,14.28
2016-07-03T02:48:13.902Z,14.28
2016-07-03T02:49:13.898Z,14.25
2016-07-03T02:50:13.906Z,14.26
2016-07-03T02:51:13.902Z,14.22
2016-07-03T02:52:13.907Z,14.18
2016-07-03T02:53:13.906Z,14.28
2016-07-03T02:54:13.907Z,14.22
2016-07-03T02:55:13.898Z,14.19
2016-07-03T02:56:13.907Z,14.18
2016-07-03T02:57:13.906Z,14.2
2016-07-03T02:58:13.902Z,14.03
2016-07-03T02:59:13.902Z,14.11
2016-07-03T03:00:13.915Z,14.03
2016-07-03T03:01:13.910Z,14.04
2016-07-03T03:02:13.903Z,13.98
2016-07-03T03:03:13.910Z,13.93
2016-07-03T03:04:13.903Z,14.01
2016-07-03T03:05:13.907Z,13.97
2016-07-03T03:06:13.908Z,13.87
2016-07-03T03:07:13.898Z,13.93
2016-07-03T03:08:13.904Z,13.94
2016-07-03T03:09:13.915Z,13.94
2016-07-03T03:10:13.913Z,13.86
2016-07-03T03:11:13.910Z,13.95
2016-07-03T03:12:13.911Z,14
2016-07-03T03:13:13.911Z,14.03
2016-07-03T03:14:13.911Z,14
2016-07-03T03:15:13.912Z,13.98
2016-07-03T03:16:13.916Z,14.01
2016-07-03T03:17:13.915Z,13.97
2016-07-03T03:18:14.034Z,14
2016-07-03T03:19:13.915Z,14.01
2016-07-03T03:20:13.920Z,14.03
2016-07-03T03:21:13.919Z,14.01
2016-07-03T03:22:13.932Z,13.95
2016-07-03T03:23:13.920Z,13.97
2016-07-03T03:24:13.928Z,13.94
2016-07-03T03:25:13.927Z,13.95
2016-07-03T03:26:13.918Z,13.98
2016-07-03T03:27:13.931Z,14
2016-07-03T03:28:13.924Z,14
2016-07-03T03:29:13.928Z,13.94
2016-07-03T03:30:13.930Z,13.97
2016-07-03T03:31:13.932Z,13.97
2016-07-03T03:32:13.937Z,13.97
2016-07-03T03:33:13.936Z,13.94
2016-07-03T03:34:13.933Z,13.93
2016-07-03T03:35:13.936Z,14
2016-07-03T03:36:13.932Z,14.03
2016-07-03T03:37:13.928Z,14.01
2016-07-03T03:38:13.916Z,13.93
2016-07-03T03:39:13.929Z,13.97
2016-07-03T03:40:13.922Z,13.97
2016-07-03T03:41:13.920Z,13.98
2016-07-03T03:42:13.922Z,14
2016-07-03T03:43:13.930Z,13.97
2016-07-03T03:44:13.922Z,13.98
2016-07-03T03:45:13.940Z,14
2016-07-03T03:46:13.928Z,14
2016-07-03T03:47:13.940Z,14.03
2016-07-03T03:48:13.935Z,13.97
2016-07-03T03:49:14.154Z,13.98
2016-07-03T03:50:13.928Z,14
2016-07-03T03:51:13.944Z,13.97
2016-07-03T03:52:13.939Z,14
2016-07-03T03:53:13.938Z,13.95
2016-07-03T03:54:13.929Z,13.98
2016-07-03T03:55:13.948Z,13.98
2016-07-03T03:56:13.940Z,13.93
2016-07-03T03:57:13.944Z,14
2016-07-03T03:58:13.939Z,14.01
2016-07-03T03:59:13.944Z,14.04
2016-07-03T04:00:13.943Z,14.01
2016-07-03T04:01:13.955Z,14.01
2016-07-03T04:02:13.944Z,14.05
2016-07-03T04:03:13.945Z,14.08
2016-07-03T04:04:13.941Z,14.13
2016-07-03T04:05:13.950Z,14.15
2016-07-03T04:06:13.940Z,14.2
2016-07-03T04:07:13.953Z,14.26
2016-07-03T04:08:13.942Z,14.31
2016-07-03T04:09:13.955Z,14.3
2016-07-03T04:10:13.952Z,14.2
2016-07-03T04:11:13.951Z,14.26
2016-07-03T04:12:13.946Z,14.34
2016-07-03T04:13:13.955Z,14.36
2016-07-03T04:14:13.946Z,14.38
2016-07-03T04:15:13.957Z,14.37
2016-07-03T04:16:13.958Z,14.37
2016-07-03T04:17:13.958Z,14.31
2016-07-03T04:18:13.956Z,14.38
2016-07-03T04:19:13.957Z,14.34
2016-07-03T04:20:13.951Z,14.4
2016-07-03T04:21:13.959Z,14.4
2016-07-03T04:22:13.953Z,14.43
2016-07-03T04:23:13.964Z,14.48
2016-07-03T04:24:13.958Z,14.49
2016-07-03T04:25:13.970Z,14.58
2016-07-03T04:26:13.970Z,14.52
2016-07-03T04:27:13.339Z,14.59
2016-07-03T04:28:13.970Z,14.59
2016-07-03T04:29:13.971Z,14.58
2016-07-03T04:30:13.967Z,14.7
2016-07-03T04:31:13.971Z,14.67
2016-07-03T04:32:13.975Z,14.82
2016-07-03T04:33:13.965Z,14.87
2016-07-03T04:34:13.971Z,14.93
2016-07-03T04:35:13.971Z,14.9
2016-07-03T04:36:13.979Z,14.96
2016-07-03T04:37:13.976Z,15.05
2016-07-03T04:38:13.975Z,15.08
2016-07-03T04:39:13.348Z,15
2016-07-03T04:40:13.992Z,15.08
2016-07-03T04:41:13.976Z,15.12
2016-07-03T04:42:13.984Z,15.37
2016-07-03T04:43:13.980Z,15.41
2016-07-03T04:44:13.984Z,15.52
2016-07-03T04:45:13.985Z,15.66
2016-07-03T04:46:13.980Z,15.67
2016-07-03T04:47:13.977Z,15.81
2016-07-03T04:48:13.985Z,15.92
2016-07-03T04:49:13.981Z,16.1
2016-07-03T04:50:13.989Z,16.31
2016-07-03T04:51:13.989Z,16.54
2016-07-03T04:52:13.980Z,16.55
2016-07-03T04:53:13.988Z,16.65
2016-07-03T04:54:13.988Z,16.74
2016-07-03T04:55:13.995Z,16.74
2016-07-03T04:56:13.991Z,16.79
2016-07-03T04:57:13.984Z,16.73
2016-07-03T04:58:13.982Z,16.76
2016-07-03T04:59:13.991Z,16.76
2016-07-03T05:00:13.994Z,16.72
2016-07-03T05:01:13.995Z,16.74
2016-07-03T05:02:13.986Z,16.89
2016-07-03T05:03:13.995Z,17.05
2016-07-03T05:04:13.994Z,17.27
2016-07-03T05:05:13.998Z,17.47
2016-07-03T05:06:13.989Z,17.6
2016-07-03T05:07:13.986Z,17.66
2016-07-03T05:08:13.997Z,17.69
2016-07-03T05:09:13.997Z,17.68
2016-07-03T05:10:13.982Z,17.53
2016-07-03T05:11:13.987Z,17.54
2016-07-03T05:12:13.988Z,17.44
2016-07-03T05:13:13.991Z,17.35
2016-07-03T05:14:14.000Z,17.34
2016-07-03T05:15:13.998Z,17.31
2016-07-03T05:16:13.997Z,17.27
2016-07-03T05:17:14.001Z,17.2
2016-07-03T05:18:14.097Z,17.13
2016-07-03T05:19:13.991Z,17.13
2016-07-03T05:20:14.006Z,17.14
2016-07-03T05:21:13.997Z,17.04
2016-07-03T05:22:13.998Z,17.04
2016-07-03T05:23:13.997Z,17.12
2016-07-03T05:24:14.006Z,16.95
2016-07-03T05:25:14.002Z,17.01
2016-07-03T05:26:14.001Z,16.89
2016-07-03T05:27:14.010Z,16.91
2016-07-03T05:28:14.006Z,16.84
2016-07-03T05:29:14.010Z,16.86
2016-07-03T05:30:14.010Z,16.83
2016-07-03T05:31:14.009Z,16.8
2016-07-03T05:32:14.010Z,16.86
2016-07-03T05:33:14.013Z,16.86
2016-07-03T05:34:14.013Z,16.91
2016-07-03T05:35:14.018Z,16.86
2016-07-03T05:36:14.013Z,16.94
2016-07-03T05:37:14.014Z,16.95
2016-07-03T05:38:14.013Z,16.95
2016-07-03T05:39:14.014Z,16.94
2016-07-03T05:40:14.010Z,17.02
2016-07-03T05:41:14.009Z,17.09
2016-07-03T05:42:14.017Z,17.14
2016-07-03T05:43:14.013Z,17.13
2016-07-03T05:44:14.022Z,17.13
2016-07-03T05:45:14.017Z,17.14
2016-07-03T05:46:14.022Z,17.17
2016-07-03T05:47:14.017Z,17.12
2016-07-03T05:48:14.021Z,17.12
2016-07-03T05:49:14.029Z,17.19
2016-07-03T05:50:14.026Z,17.19
2016-07-03T05:51:14.025Z,17.24
2016-07-03T05:52:14.026Z,17.32
2016-07-03T05:53:14.022Z,17.35
2016-07-03T05:54:14.026Z,17.47
2016-07-03T05:55:14.022Z,17.53
2016-07-03T05:56:14.034Z,17.6
2016-07-03T05:57:14.025Z,17.68
2016-07-03T05:58:14.030Z,17.65
2016-07-03T05:59:14.029Z,17.6
2016-07-03T06:00:14.033Z,17.69
2016-07-03T06:01:14.033Z,17.66
2016-07-03T06:02:14.033Z,17.59
2016-07-03T06:03:14.030Z,17.65
2016-07-03T06:04:14.035Z,17.56
2016-07-03T06:05:14.039Z,17.57
2016-07-03T06:06:14.040Z,17.63
2016-07-03T06:07:14.035Z,17.59
2016-07-03T06:08:14.040Z,17.57
2016-07-03T06:09:14.032Z,17.5
2016-07-03T06:10:14.045Z,17.5
2016-07-03T06:11:14.041Z,17.52
2016-07-03T06:12:14.050Z,17.65
2016-07-03T06:13:14.042Z,17.59
2016-07-03T06:14:14.046Z,17.56
2016-07-03T06:15:14.042Z,17.63
2016-07-03T06:16:14.051Z,17.69
2016-07-03T06:17:14.042Z,17.68
2016-07-03T06:18:14.051Z,17.78
2016-07-03T06:19:14.042Z,17.8
2016-07-03T06:20:14.051Z,17.84
2016-07-03T06:21:14.046Z,17.78
2016-07-03T06:22:14.047Z,17.78
2016-07-03T06:23:14.052Z,17.79
2016-07-03T06:24:14.056Z,17.8
2016-07-03T06:25:14.059Z,17.75
2016-07-03T06:26:14.061Z,17.71
2016-07-03T06:27:14.051Z,17.84
2016-07-03T06:28:14.056Z,17.82
2016-07-03T06:29:14.051Z,17.91
2016-07-03T06:30:14.057Z,17.94
2016-07-03T06:31:14.056Z,18.05
2016-07-03T06:32:14.065Z,18.16
2016-07-03T06:33:14.059Z,18.34
2016-07-03T06:34:14.069Z,18.41
2016-07-03T06:35:14.064Z,18.61
2016-07-03T06:36:14.069Z,18.81
2016-07-03T06:37:14.060Z,19
2016-07-03T06:38:14.068Z,19.34
2016-07-03T06:39:14.058Z,19.59
2016-07-03T06:40:14.060Z,19.92
2016-07-03T06:41:14.062Z,20.33
2016-07-03T06:42:14.068Z,20.75
2016-07-03T06:43:14.066Z,21.11
2016-07-03T06:44:14.059Z,21.65
2016-07-03T06:45:14.061Z,22.06
2016-07-03T06:46:13.446Z,22.36
2016-07-03T06:47:14.067Z,22.67
2016-07-03T06:48:14.074Z,22.93
2016-07-03T06:49:14.065Z,23.2
2016-07-03T06:50:13.442Z,23.47
2016-07-03T06:51:14.070Z,23.71
2016-07-03T06:52:14.073Z,23.99
2016-07-03T06:53:14.065Z,24.25
2016-07-03T06:54:14.067Z,24.48
2016-07-03T06:55:14.072Z,24.59
2016-07-03T06:56:13.448Z,24.62
2016-07-03T06:57:14.076Z,24.81
2016-07-03T06:58:14.073Z,25.06
2016-07-03T06:59:14.085Z,25.33
2016-07-03T07:00:13.458Z,25.44
2016-07-03T07:01:14.085Z,25.63
2016-07-03T07:02:14.077Z,25.95
2016-07-03T07:03:14.084Z,26.56
2016-07-03T07:04:14.089Z,27.11
2016-07-03T07:05:13.457Z,27.64
2016-07-03T07:06:14.094Z,28.08
2016-07-03T07:07:14.085Z,28.3
2016-07-03T07:08:14.094Z,28.34
2016-07-03T07:09:14.082Z,28.33
2016-07-03T07:10:14.083Z,28.74
2016-07-03T07:11:14.089Z,29.2
2016-07-03T07:12:14.096Z,29.52
2016-07-03T07:13:14.089Z,29.74
2016-07-03T07:14:14.090Z,29.83
2016-07-03T07:15:14.090Z,29.9
2016-07-03T07:16:14.098Z,29.84
2016-07-03T07:17:14.094Z,29.59
2016-07-03T07:18:14.095Z,29.24
2016-07-03T07:19:14.094Z,29.02
2016-07-03T07:20:14.093Z,28.74
2016-07-03T07:21:14.102Z,28.49
2016-07-03T07:22:14.103Z,28.28
2016-07-03T07:23:14.106Z,27.91
2016-07-03T07:24:14.111Z,27.53
2016-07-03T07:25:14.102Z,27.16
2016-07-03T07:26:14.111Z,26.85
2016-07-03T07:27:14.103Z,26.59
2016-07-03T07:28:14.107Z,26.13
2016-07-03T07:29:14.107Z,25.71
2016-07-03T07:30:14.105Z,25.43
2016-07-03T07:31:14.100Z,25.12
2016-07-03T07:32:14.109Z,24.79
2016-07-03T07:33:14.111Z,24.59
2016-07-03T07:34:14.116Z,24.44
2016-07-03T07:35:14.119Z,24.18
2016-07-03T07:36:14.113Z,23.89
2016-07-03T07:37:14.113Z,23.7
2016-07-03T07:38:14.126Z,23.52
2016-07-03T07:39:14.123Z,23.39
2016-07-03T07:40:14.128Z,23.23
2016-07-03T07:41:14.127Z,23.21
2016-07-03T07:42:14.132Z,23.62
2016-07-03T07:43:14.123Z,24.53
2016-07-03T07:44:13.504Z,25.61
2016-07-03T07:45:14.128Z,26.89
2016-07-03T07:46:14.136Z,28.16
2016-07-03T07:47:14.131Z,29.47
2016-07-03T07:48:14.140Z,30.83
2016-07-03T07:49:14.136Z,32.01
2016-07-03T07:50:13.512Z,32.98
2016-07-03T07:51:14.140Z,33.63
2016-07-03T07:52:14.144Z,33.84
2016-07-03T07:53:14.136Z,33.79
2016-07-03T07:54:13.521Z,33.7
2016-07-03T07:55:14.145Z,33.63
2016-07-03T07:56:14.144Z,33.53
2016-07-03T07:57:14.149Z,33.2
2016-07-03T07:58:14.157Z,32.97
2016-07-03T07:59:14.150Z,33.09
2016-07-03T08:00:14.152Z,33.32
2016-07-03T08:01:14.156Z,33.66
2016-07-03T08:02:14.153Z,34.24
2016-07-03T08:03:14.165Z,34.96
2016-07-03T08:04:14.169Z,35.59
2016-07-03T08:05:13.533Z,36.25
2016-07-03T08:06:14.149Z,36.72
2016-07-03T08:07:13.529Z,37.29
2016-07-03T08:08:14.162Z,37.94
2016-07-03T08:09:14.159Z,37.88
2016-07-03T08:10:14.154Z,37.61
2016-07-03T08:11:14.165Z,37.23
2016-07-03T08:12:14.162Z,36.59
2016-07-03T08:13:14.166Z,35.71
2016-07-03T08:14:14.172Z,34.83
2016-07-03T08:15:14.171Z,33.84
2016-07-03T08:16:14.167Z,32.85
2016-07-03T08:17:14.181Z,32
2016-07-03T08:18:14.225Z,31.17
2016-07-03T08:19:14.188Z,30.46
2016-07-03T08:20:14.177Z,29.94
2016-07-03T08:21:14.185Z,29.98
2016-07-03T08:22:14.181Z,30.31
2016-07-03T08:23:14.190Z,30.62
2016-07-03T08:24:14.175Z,31
2016-07-03T08:25:14.190Z,31.57
2016-07-03T08:26:14.190Z,32.26
2016-07-03T08:27:13.577Z,32.82
2016-07-03T08:28:14.183Z,33.36
2016-07-03T08:29:14.195Z,33.98
2016-07-03T08:30:14.190Z,34.69
2016-07-03T08:31:14.203Z,35.38
2016-07-03T08:32:14.201Z,36.22
2016-07-03T08:33:14.202Z,36.75
2016-07-03T08:34:14.202Z,37.14
2016-07-03T08:35:13.582Z,37.29
2016-07-03T08:36:13.583Z,37.56
2016-07-03T08:37:14.211Z,37.82
2016-07-03T08:38:14.210Z,38.1
2016-07-03T08:39:14.219Z,38.16
2016-07-03T08:40:14.218Z,38.09
2016-07-03T08:41:14.223Z,37.76
2016-07-03T08:42:14.223Z,37.16
2016-07-03T08:43:14.215Z,36.62
2016-07-03T08:44:14.218Z,36.24
2016-07-03T08:45:14.227Z,35.86
2016-07-03T08:46:14.223Z,35.74
2016-07-03T08:47:14.224Z,35.86
2016-07-03T08:48:14.220Z,36.16
2016-07-03T08:49:14.227Z,36.47
2016-07-03T08:50:14.231Z,36.6
2016-07-03T08:51:14.236Z,36.59
2016-07-03T08:52:14.245Z,36.66
2016-07-03T08:53:14.233Z,36.59
2016-07-03T08:54:14.235Z,36.31
2016-07-03T08:55:14.247Z,35.91
2016-07-03T08:56:14.243Z,35.26
2016-07-03T08:57:14.240Z,34.51
2016-07-03T08:58:14.234Z,33.77
2016-07-03T08:59:14.236Z,33.1
2016-07-03T09:00:14.251Z,32.34
2016-07-03T09:01:14.258Z,31.66
2016-07-03T09:02:14.240Z,30.77
2016-07-03T09:03:14.253Z,30.18
2016-07-03T09:04:14.248Z,29.57
2016-07-03T09:05:14.260Z,29.2
2016-07-03T09:06:14.257Z,28.92
2016-07-03T09:07:14.263Z,29.07
2016-07-03T09:08:14.269Z,29.42
2016-07-03T09:09:14.264Z,29.98
2016-07-03T09:10:14.265Z,30.71
2016-07-03T09:11:14.274Z,31.5
2016-07-03T09:12:14.269Z,32.23
2016-07-03T09:13:14.273Z,32.83
2016-07-03T09:14:14.273Z,33.33
2016-07-03T09:15:14.282Z,33.81
2016-07-03T09:16:14.278Z,34.33
2016-07-03T09:17:14.284Z,34.78
2016-07-03T09:18:14.286Z,34.96
2016-07-03T09:19:14.282Z,35.15
2016-07-03T09:20:14.285Z,35.37
2016-07-03T09:21:14.287Z,35.68
2016-07-03T09:22:14.290Z,35.94
2016-07-03T09:23:14.301Z,35.94
2016-07-03T09:24:14.291Z,35.6
2016-07-03T09:25:14.294Z,35.44
2016-07-03T09:26:14.293Z,35.19
2016-07-03T09:27:14.296Z,34.73
2016-07-03T09:28:14.295Z,34.25
2016-07-03T09:29:14.300Z,33.75
2016-07-03T09:30:14.302Z,33.38
2016-07-03T09:31:14.308Z,32.85
2016-07-03T09:32:14.305Z,32.31
2016-07-03T09:33:14.310Z,31.73
2016-07-03T09:34:14.316Z,31.33
2016-07-03T09:35:14.323Z,30.71
2016-07-03T09:36:14.310Z,30.1
2016-07-03T09:37:14.324Z,29.58
2016-07-03T09:38:14.323Z,29.2
2016-07-03T09:39:14.328Z,28.97
2016-07-03T09:40:14.316Z,28.65
2016-07-03T09:41:14.327Z,28.52
2016-07-03T09:42:14.334Z,28.49
2016-07-03T09:43:14.339Z,28.47
2016-07-03T09:44:14.338Z,28.62
2016-07-03T09:45:14.329Z,28.57
2016-07-03T09:46:14.339Z,28.72
2016-07-03T09:47:14.345Z,28.75
2016-07-03T09:48:14.342Z,28.72
2016-07-03T09:49:14.352Z,28.65
2016-07-03T09:50:14.348Z,28.47
2016-07-03T09:51:14.349Z,28.33
2016-07-03T09:52:14.344Z,28.01
2016-07-03T09:53:14.353Z,27.97
2016-07-03T09:54:14.356Z,27.82
2016-07-03T09:55:14.360Z,27.6
2016-07-03T09:56:14.355Z,27.41
2016-07-03T09:57:14.362Z,27.35
2016-07-03T09:58:14.357Z,27.18
2016-07-03T09:59:14.367Z,27.11
2016-07-03T10:00:14.367Z,26.89
2016-07-03T10:01:14.375Z,26.93
2016-07-03T10:02:14.380Z,26.88
2016-07-03T10:03:14.368Z,26.79
2016-07-03T10:04:14.385Z,26.71
2016-07-03T10:05:14.388Z,26.66
2016-07-03T10:06:14.381Z,26.59
2016-07-03T10:07:14.384Z,26.46
2016-07-03T10:08:14.388Z,26.24
2016-07-03T10:09:14.397Z,26.04
2016-07-03T10:10:14.396Z,25.81
2016-07-03T10:11:14.394Z,25.55
2016-07-03T10:12:14.401Z,25.3
2016-07-03T10:13:14.402Z,25.15
2016-07-03T10:14:14.409Z,25.11
2016-07-03T10:15:14.406Z,24.97
2016-07-03T10:16:14.407Z,24.96
2016-07-03T10:17:14.410Z,24.92
2016-07-03T10:18:14.461Z,24.93
2016-07-03T10:19:14.417Z,24.93
2016-07-03T10:20:14.408Z,24.97
2016-07-03T10:21:14.416Z,24.97
2016-07-03T10:22:14.412Z,24.94
2016-07-03T10:23:14.422Z,24.85
2016-07-03T10:24:14.422Z,24.96
2016-07-03T10:25:14.431Z,24.94
2016-07-03T10:26:14.426Z,24.92
2016-07-03T10:27:14.429Z,25.09
2016-07-03T10:28:14.430Z,25.06
2016-07-03T10:29:14.442Z,25.18
2016-07-03T10:30:14.451Z,25.11
2016-07-03T10:31:14.444Z,25.09
2016-07-03T10:32:14.443Z,25
2016-07-03T10:33:14.444Z,24.97
2016-07-03T10:34:14.456Z,25.06
2016-07-03T10:35:14.440Z,24.96
2016-07-03T10:36:14.448Z,25.03
2016-07-03T10:37:14.457Z,25.03
2016-07-03T10:38:14.462Z,25.12
2016-07-03T10:39:14.457Z,25.09
2016-07-03T10:40:14.457Z,25.11
2016-07-03T10:41:14.457Z,25.11
2016-07-03T10:42:14.462Z,25.07
2016-07-03T10:43:14.460Z,25.09
2016-07-03T10:44:14.465Z,24.94
2016-07-03T10:45:14.468Z,24.97
2016-07-03T10:46:14.468Z,25.12
2016-07-03T10:47:14.475Z,25.16
2016-07-03T10:48:14.470Z,25.3
2016-07-03T10:49:14.479Z,25.34
2016-07-03T10:50:14.475Z,25.34
2016-07-03T10:51:14.479Z,25.48
2016-07-03T10:52:14.477Z,25.58
2016-07-03T10:53:14.475Z,25.66
2016-07-03T10:54:14.487Z,25.74
2016-07-03T10:55:14.481Z,25.55
2016-07-03T10:56:14.489Z,25.56
2016-07-03T10:57:14.493Z,25.62
2016-07-03T10:58:14.500Z,25.59
2016-07-03T10:59:14.507Z,25.54
2016-07-03T11:00:14.507Z,25.48
2016-07-03T11:01:14.499Z,25.54
2016-07-03T11:02:14.501Z,25.54
2016-07-03T11:03:14.500Z,25.48
2016-07-03T11:04:14.512Z,25.49
2016-07-03T11:05:14.510Z,25.51
2016-07-03T11:06:14.517Z,25.56
2016-07-03T11:07:14.519Z,25.58
2016-07-03T11:08:14.527Z,25.55
2016-07-03T11:09:14.519Z,25.7
2016-07-03T11:10:14.539Z,25.58
2016-07-03T11:11:14.527Z,25.51
2016-07-03T11:12:14.529Z,25.46
2016-07-03T11:13:14.528Z,25.52
2016-07-03T11:14:14.527Z,25.44
2016-07-03T11:15:14.533Z,25.41
2016-07-03T11:16:14.541Z,25.36
2016-07-03T11:17:14.546Z,25.4
2016-07-03T11:18:14.538Z,25.3
2016-07-03T11:19:14.539Z,25.21
2016-07-03T11:20:14.539Z,25.24
2016-07-03T11:21:14.544Z,25.24
2016-07-03T11:22:14.558Z,25.34
2016-07-03T11:23:14.553Z,25.3
2016-07-03T11:24:14.554Z,25.3
2016-07-03T11:25:14.555Z,25.34
2016-07-03T11:26:14.559Z,25.39
2016-07-03T11:27:14.578Z,25.46
2016-07-03T11:28:14.562Z,25.58
2016-07-03T11:29:14.567Z,25.58
2016-07-03T11:30:14.567Z,25.71
2016-07-03T11:31:14.562Z,25.56
2016-07-03T11:32:14.571Z,25.62
2016-07-03T11:33:14.584Z,25.68
2016-07-03T11:34:14.580Z,25.77
2016-07-03T11:35:14.580Z,25.8
2016-07-03T11:36:14.571Z,25.91
2016-07-03T11:37:14.584Z,25.99
2016-07-03T11:38:14.587Z,26.04
2016-07-03T11:39:13.971Z,26.15
2016-07-03T11:40:14.591Z,26.08
2016-07-03T11:41:14.592Z,26.07
2016-07-03T11:42:14.592Z,26.06
2016-07-03T11:43:14.600Z,25.99
2016-07-03T11:44:14.603Z,25.91
2016-07-03T11:45:14.608Z,25.86
2016-07-03T11:46:14.612Z,25.83
2016-07-03T11:47:14.613Z,25.85
2016-07-03T11:48:14.615Z,25.83
2016-07-03T11:49:14.612Z,25.83
2016-07-03T11:50:14.612Z,25.81
2016-07-03T11:51:14.620Z,25.77
2016-07-03T11:52:14.624Z,25.74
2016-07-03T11:53:14.624Z,25.77
2016-07-03T11:54:14.619Z,25.78
2016-07-03T11:55:14.632Z,25.78
2016-07-03T11:56:14.628Z,25.85
2016-07-03T11:57:14.632Z,25.89
2016-07-03T11:58:14.628Z,25.86
2016-07-03T11:59:14.636Z,25.98
2016-07-03T12:00:14.636Z,26.03
2016-07-03T12:01:14.636Z,26.13
2016-07-03T12:02:14.641Z,26.08
2016-07-03T12:03:14.648Z,26.08
2016-07-03T12:04:14.648Z,26.08
2016-07-03T12:05:14.649Z,25.95
2016-07-03T12:06:14.656Z,25.91
2016-07-03T12:07:14.660Z,25.92
2016-07-03T12:08:14.661Z,25.98
2016-07-03T12:09:14.028Z,25.98
2016-07-03T12:10:14.661Z,25.89
2016-07-03T12:11:14.662Z,25.81
2016-07-03T12:12:14.660Z,25.76
2016-07-03T12:13:14.669Z,25.77
2016-07-03T12:14:14.673Z,25.83
2016-07-03T12:15:14.677Z,25.85
2016-07-03T12:16:14.677Z,25.88
2016-07-03T12:17:14.681Z,25.89
2016-07-03T12:18:14.829Z,25.88
2016-07-03T12:19:14.685Z,25.95
2016-07-03T12:20:14.692Z,25.96
2016-07-03T12:21:14.688Z,25.95
2016-07-03T12:22:14.688Z,25.99
2016-07-03T12:23:14.685Z,26.03
2016-07-03T12:24:14.694Z,26.1
2016-07-03T12:25:14.692Z,26.08
2016-07-03T12:26:14.700Z,26.1
2016-07-03T12:27:14.701Z,26.01
2016-07-03T12:28:14.700Z,25.95
2016-07-03T12:29:14.077Z,25.88
2016-07-03T12:30:14.708Z,25.85
2016-07-03T12:31:14.712Z,25.89
2016-07-03T12:32:14.716Z,25.85
2016-07-03T12:33:14.720Z,25.8
2016-07-03T12:34:14.720Z,25.66
2016-07-03T12:35:14.720Z,25.71
2016-07-03T12:36:14.724Z,25.81
2016-07-03T12:37:14.716Z,25.83
2016-07-03T12:38:14.728Z,25.78
2016-07-03T12:39:14.728Z,25.81
2016-07-03T12:40:14.735Z,25.85
2016-07-03T12:41:14.727Z,25.71
2016-07-03T12:42:14.731Z,25.63
2016-07-03T12:43:14.737Z,25.44
2016-07-03T12:44:14.740Z,25.33
2016-07-03T12:45:14.744Z,25.16
2016-07-03T12:46:14.743Z,25.09
2016-07-03T12:47:14.745Z,25.14
2016-07-03T12:48:14.744Z,24.94
2016-07-03T12:49:14.749Z,24.93
2016-07-03T12:50:14.752Z,24.93
2016-07-03T12:51:14.129Z,24.96
2016-07-03T12:52:14.760Z,25.03
2016-07-03T12:53:14.761Z,25
2016-07-03T12:54:14.764Z,24.89
2016-07-03T12:55:14.765Z,24.81
2016-07-03T12:56:14.760Z,24.77